<?xml version="1.0" encoding="UTF-8" standalone="no" ?>
<gpx xmlns="http://www.topografix.com/GPX/1/1" xmlns:xsi="http://www.w3.org/2001/XMLSchema-instance" xsi:schemaLocation="http://www.topografix.com/GPX/1/1 http://www.topografix.com/GPX/1/1/gpx.xsd" version="1.1" creator="VisuGPX - https://www.visugpx.com">
  <metadata>
    <name>64 - PEDESTRE - Arthez-de-Béarn - Le val de Leire</name>
    <desc><![CDATA[Reconnaissance du balisage. AUCUN balisage.]]></desc>
  </metadata>
  <wpt lat="43.46628" lon="-0.64445">
    <ele>205.606201</ele>
    <name><![CDATA[005]]></name>
    <desc><![CDATA[08-JUL-14 14:36:16]]></desc>
    <cmt><![CDATA[08-JUL-14 14:36:16]]></cmt>
  </wpt>
  <wpt lat="43.46935" lon="-0.65959">
    <ele>114.521851</ele>
    <name><![CDATA[006]]></name>
    <desc><![CDATA[08-JUL-14 15:08:41]]></desc>
    <cmt><![CDATA[08-JUL-14 15:08:41]]></cmt>
  </wpt>
  <wpt lat="43.46974" lon="-0.66667">
    <ele>124.615723</ele>
    <name><![CDATA[007]]></name>
    <desc><![CDATA[08-JUL-14 15:17:24]]></desc>
    <cmt><![CDATA[08-JUL-14 15:17:24]]></cmt>
  </wpt>
  <wpt lat="43.47579" lon="-0.6676">
    <ele>189.02356</ele>
    <name><![CDATA[008]]></name>
    <desc><![CDATA[08-JUL-14 15:28:05]]></desc>
    <cmt><![CDATA[08-JUL-14 15:28:05]]></cmt>
  </wpt>
  <wpt lat="43.47154" lon="-0.63961">
    <ele>222.429077</ele>
    <name><![CDATA[009]]></name>
    <desc><![CDATA[08-JUL-14 16:05:03]]></desc>
    <cmt><![CDATA[08-JUL-14 16:05:03]]></cmt>
  </wpt>
  <wpt lat="43.47058" lon="-0.6371">
    <ele>224.592041</ele>
    <name><![CDATA[010]]></name>
    <desc><![CDATA[08-JUL-14 16:08:50]]></desc>
    <cmt><![CDATA[08-JUL-14 16:08:50]]></cmt>
  </wpt>
  <trk>
    <name><![CDATA[ACTIVE LOG 020]]></name>
    <trkseg>
      <trkpt lat="43.46382" lon="-0.6169">
        <ele>147.218994</ele>
        <time>2014-07-08T11:56:59Z</time>
      </trkpt>
      <trkpt lat="43.46382" lon="-0.6169">
        <ele>146.257813</ele>
        <time>2014-07-08T11:57:00Z</time>
      </trkpt>
      <trkpt lat="43.46441" lon="-0.6167">
        <ele>150.103027</ele>
        <time>2014-07-08T11:57:07Z</time>
      </trkpt>
      <trkpt lat="43.46443" lon="-0.61669">
        <ele>153.948364</ele>
        <time>2014-07-08T11:57:09Z</time>
      </trkpt>
      <trkpt lat="43.46444" lon="-0.61671">
        <ele>158.754761</ele>
        <time>2014-07-08T11:57:12Z</time>
      </trkpt>
      <trkpt lat="43.46445" lon="-0.61672">
        <ele>162.600098</ele>
        <time>2014-07-08T11:57:14Z</time>
      </trkpt>
      <trkpt lat="43.46445" lon="-0.61672">
        <ele>166.445313</ele>
        <time>2014-07-08T11:57:17Z</time>
      </trkpt>
      <trkpt lat="43.46446" lon="-0.61672">
        <ele>169.810059</ele>
        <time>2014-07-08T11:57:19Z</time>
      </trkpt>
      <trkpt lat="43.46446" lon="-0.61672">
        <ele>174.135864</ele>
        <time>2014-07-08T11:57:21Z</time>
      </trkpt>
      <trkpt lat="43.46446" lon="-0.61672">
        <ele>177.50061</ele>
        <time>2014-07-08T11:57:23Z</time>
      </trkpt>
      <trkpt lat="43.46447" lon="-0.61672">
        <ele>181.826416</ele>
        <time>2014-07-08T11:57:26Z</time>
      </trkpt>
      <trkpt lat="43.46447" lon="-0.61671">
        <ele>186.152466</ele>
        <time>2014-07-08T11:57:30Z</time>
      </trkpt>
      <trkpt lat="43.46447" lon="-0.6167">
        <ele>190.478394</ele>
        <time>2014-07-08T11:57:33Z</time>
      </trkpt>
      <trkpt lat="43.46446" lon="-0.6167">
        <ele>193.843018</ele>
        <time>2014-07-08T11:57:36Z</time>
      </trkpt>
      <trkpt lat="43.46447" lon="-0.6167">
        <ele>197.20752</ele>
        <time>2014-07-08T11:57:39Z</time>
      </trkpt>
      <trkpt lat="43.46447" lon="-0.6167">
        <ele>200.091675</ele>
        <time>2014-07-08T11:57:43Z</time>
      </trkpt>
      <trkpt lat="43.46448" lon="-0.6167">
        <ele>202.975464</ele>
        <time>2014-07-08T11:57:47Z</time>
      </trkpt>
      <trkpt lat="43.46447" lon="-0.6167">
        <ele>204.41748</ele>
        <time>2014-07-08T11:57:49Z</time>
      </trkpt>
      <trkpt lat="43.46448" lon="-0.6167">
        <ele>207.782104</ele>
        <time>2014-07-08T11:57:54Z</time>
      </trkpt>
      <trkpt lat="43.46448" lon="-0.6167">
        <ele>209.224121</ele>
        <time>2014-07-08T11:57:57Z</time>
      </trkpt>
      <trkpt lat="43.46448" lon="-0.61672">
        <ele>212.588623</ele>
        <time>2014-07-08T11:58:01Z</time>
      </trkpt>
      <trkpt lat="43.46449" lon="-0.61677">
        <ele>214.51123</ele>
        <time>2014-07-08T11:58:07Z</time>
      </trkpt>
      <trkpt lat="43.46448" lon="-0.61677">
        <ele>217.875977</ele>
        <time>2014-07-08T11:58:18Z</time>
      </trkpt>
      <trkpt lat="43.46442" lon="-0.61661">
        <ele>217.395386</ele>
        <time>2014-07-08T11:58:41Z</time>
      </trkpt>
      <trkpt lat="43.46439" lon="-0.61655">
        <ele>216.43396</ele>
        <time>2014-07-08T11:59:05Z</time>
      </trkpt>
      <trkpt lat="43.46446" lon="-0.61656">
        <ele>216.914673</ele>
        <time>2014-07-08T11:59:35Z</time>
      </trkpt>
      <trkpt lat="43.46454" lon="-0.61661">
        <ele>217.875977</ele>
        <time>2014-07-08T11:59:48Z</time>
      </trkpt>
      <trkpt lat="43.46454" lon="-0.61662">
        <ele>217.395386</ele>
        <time>2014-07-08T11:59:51Z</time>
      </trkpt>
      <trkpt lat="43.4644" lon="-0.61678">
        <ele>216.914673</ele>
        <time>2014-07-08T12:00:09Z</time>
      </trkpt>
      <trkpt lat="43.46437" lon="-0.61682">
        <ele>216.914673</ele>
        <time>2014-07-08T12:00:32Z</time>
      </trkpt>
      <trkpt lat="43.46439" lon="-0.61681">
        <ele>215.953247</ele>
        <time>2014-07-08T12:01:36Z</time>
      </trkpt>
      <trkpt lat="43.46441" lon="-0.61672">
        <ele>216.43396</ele>
        <time>2014-07-08T12:01:56Z</time>
      </trkpt>
      <trkpt lat="43.46446" lon="-0.61663">
        <ele>216.914673</ele>
        <time>2014-07-08T12:02:09Z</time>
      </trkpt>
      <trkpt lat="43.46457" lon="-0.61666">
        <ele>216.914673</ele>
        <time>2014-07-08T12:02:22Z</time>
      </trkpt>
      <trkpt lat="43.46464" lon="-0.61675">
        <ele>217.395386</ele>
        <time>2014-07-08T12:02:31Z</time>
      </trkpt>
      <trkpt lat="43.46464" lon="-0.61704">
        <ele>216.43396</ele>
        <time>2014-07-08T12:02:49Z</time>
      </trkpt>
      <trkpt lat="43.46467" lon="-0.61727">
        <ele>215.953247</ele>
        <time>2014-07-08T12:03:03Z</time>
      </trkpt>
      <trkpt lat="43.46468" lon="-0.6173">
        <ele>216.43396</ele>
        <time>2014-07-08T12:03:05Z</time>
      </trkpt>
      <trkpt lat="43.46469" lon="-0.61733">
        <ele>216.43396</ele>
        <time>2014-07-08T12:03:07Z</time>
      </trkpt>
      <trkpt lat="43.4647" lon="-0.61749">
        <ele>216.43396</ele>
        <time>2014-07-08T12:03:17Z</time>
      </trkpt>
      <trkpt lat="43.46473" lon="-0.61761">
        <ele>216.914673</ele>
        <time>2014-07-08T12:03:24Z</time>
      </trkpt>
      <trkpt lat="43.46473" lon="-0.61766">
        <ele>216.43396</ele>
        <time>2014-07-08T12:03:27Z</time>
      </trkpt>
      <trkpt lat="43.46478" lon="-0.61793">
        <ele>216.43396</ele>
        <time>2014-07-08T12:03:43Z</time>
      </trkpt>
      <trkpt lat="43.46478" lon="-0.61797">
        <ele>216.43396</ele>
        <time>2014-07-08T12:03:45Z</time>
      </trkpt>
      <trkpt lat="43.46478" lon="-0.6182">
        <ele>216.43396</ele>
        <time>2014-07-08T12:03:58Z</time>
      </trkpt>
      <trkpt lat="43.46481" lon="-0.6185">
        <ele>216.914673</ele>
        <time>2014-07-08T12:04:14Z</time>
      </trkpt>
      <trkpt lat="43.46481" lon="-0.61851">
        <ele>216.914673</ele>
        <time>2014-07-08T12:04:15Z</time>
      </trkpt>
      <trkpt lat="43.46482" lon="-0.61883">
        <ele>214.991943</ele>
        <time>2014-07-08T12:04:33Z</time>
      </trkpt>
      <trkpt lat="43.46482" lon="-0.61885">
        <ele>215.472656</ele>
        <time>2014-07-08T12:04:34Z</time>
      </trkpt>
      <trkpt lat="43.46483" lon="-0.61918">
        <ele>214.991943</ele>
        <time>2014-07-08T12:04:52Z</time>
      </trkpt>
      <trkpt lat="43.46481" lon="-0.61952">
        <ele>214.991943</ele>
        <time>2014-07-08T12:05:11Z</time>
      </trkpt>
      <trkpt lat="43.46478" lon="-0.61988">
        <ele>214.991943</ele>
        <time>2014-07-08T12:05:31Z</time>
      </trkpt>
      <trkpt lat="43.46476" lon="-0.62023">
        <ele>215.472656</ele>
        <time>2014-07-08T12:05:51Z</time>
      </trkpt>
      <trkpt lat="43.46476" lon="-0.62034">
        <ele>214.51123</ele>
        <time>2014-07-08T12:06:12Z</time>
      </trkpt>
      <trkpt lat="43.46475" lon="-0.62039">
        <ele>214.03064</ele>
        <time>2014-07-08T12:06:32Z</time>
      </trkpt>
      <trkpt lat="43.46473" lon="-0.62058">
        <ele>214.51123</ele>
        <time>2014-07-08T12:07:07Z</time>
      </trkpt>
      <trkpt lat="43.46472" lon="-0.62086">
        <ele>214.51123</ele>
        <time>2014-07-08T12:07:25Z</time>
      </trkpt>
      <trkpt lat="43.46475" lon="-0.62115">
        <ele>215.953247</ele>
        <time>2014-07-08T12:07:44Z</time>
      </trkpt>
      <trkpt lat="43.46473" lon="-0.62147">
        <ele>215.953247</ele>
        <time>2014-07-08T12:08:02Z</time>
      </trkpt>
      <trkpt lat="43.4647" lon="-0.62171">
        <ele>216.914673</ele>
        <time>2014-07-08T12:08:16Z</time>
      </trkpt>
      <trkpt lat="43.46468" lon="-0.62185">
        <ele>217.395386</ele>
        <time>2014-07-08T12:08:24Z</time>
      </trkpt>
      <trkpt lat="43.46467" lon="-0.62195">
        <ele>217.875977</ele>
        <time>2014-07-08T12:08:30Z</time>
      </trkpt>
      <trkpt lat="43.46467" lon="-0.62225">
        <ele>219.798584</ele>
        <time>2014-07-08T12:08:47Z</time>
      </trkpt>
      <trkpt lat="43.46472" lon="-0.62257">
        <ele>221.240601</ele>
        <time>2014-07-08T12:09:06Z</time>
      </trkpt>
      <trkpt lat="43.46478" lon="-0.62295">
        <ele>222.201782</ele>
        <time>2014-07-08T12:09:27Z</time>
      </trkpt>
      <trkpt lat="43.46484" lon="-0.62331">
        <ele>223.163208</ele>
        <time>2014-07-08T12:09:48Z</time>
      </trkpt>
      <trkpt lat="43.46485" lon="-0.62343">
        <ele>223.163208</ele>
        <time>2014-07-08T12:10:03Z</time>
      </trkpt>
      <trkpt lat="43.46486" lon="-0.62346">
        <ele>223.163208</ele>
        <time>2014-07-08T12:10:14Z</time>
      </trkpt>
      <trkpt lat="43.46487" lon="-0.6235">
        <ele>223.163208</ele>
        <time>2014-07-08T12:10:32Z</time>
      </trkpt>
      <trkpt lat="43.46488" lon="-0.62352">
        <ele>223.643799</ele>
        <time>2014-07-08T12:11:00Z</time>
      </trkpt>
      <trkpt lat="43.46491" lon="-0.6238">
        <ele>224.124512</ele>
        <time>2014-07-08T12:11:18Z</time>
      </trkpt>
      <trkpt lat="43.46496" lon="-0.62417">
        <ele>224.605225</ele>
        <time>2014-07-08T12:11:39Z</time>
      </trkpt>
      <trkpt lat="43.46505" lon="-0.62454">
        <ele>225.566528</ele>
        <time>2014-07-08T12:12:01Z</time>
      </trkpt>
      <trkpt lat="43.46511" lon="-0.62478">
        <ele>227.008545</ele>
        <time>2014-07-08T12:12:15Z</time>
      </trkpt>
      <trkpt lat="43.4652" lon="-0.62517">
        <ele>227.969727</ele>
        <time>2014-07-08T12:12:37Z</time>
      </trkpt>
      <trkpt lat="43.46523" lon="-0.62554">
        <ele>227.969727</ele>
        <time>2014-07-08T12:12:59Z</time>
      </trkpt>
      <trkpt lat="43.4652" lon="-0.62583">
        <ele>228.450439</ele>
        <time>2014-07-08T12:13:15Z</time>
      </trkpt>
      <trkpt lat="43.46514" lon="-0.62614">
        <ele>229.411743</ele>
        <time>2014-07-08T12:13:35Z</time>
      </trkpt>
      <trkpt lat="43.46514" lon="-0.62619">
        <ele>228.931152</ele>
        <time>2014-07-08T12:13:38Z</time>
      </trkpt>
      <trkpt lat="43.4651" lon="-0.6265">
        <ele>229.892334</ele>
        <time>2014-07-08T12:13:58Z</time>
      </trkpt>
      <trkpt lat="43.46513" lon="-0.62647">
        <ele>229.892334</ele>
        <time>2014-07-08T12:14:05Z</time>
      </trkpt>
      <trkpt lat="43.46517" lon="-0.62643">
        <ele>229.411743</ele>
        <time>2014-07-08T12:14:09Z</time>
      </trkpt>
      <trkpt lat="43.46525" lon="-0.62624">
        <ele>229.892334</ele>
        <time>2014-07-08T12:14:31Z</time>
      </trkpt>
      <trkpt lat="43.46524" lon="-0.62624">
        <ele>229.892334</ele>
        <time>2014-07-08T12:14:48Z</time>
      </trkpt>
      <trkpt lat="43.46521" lon="-0.6263">
        <ele>228.931152</ele>
        <time>2014-07-08T12:14:53Z</time>
      </trkpt>
      <trkpt lat="43.46513" lon="-0.62679">
        <ele>230.373047</ele>
        <time>2014-07-08T12:15:21Z</time>
      </trkpt>
      <trkpt lat="43.46511" lon="-0.62689">
        <ele>230.373047</ele>
        <time>2014-07-08T12:15:38Z</time>
      </trkpt>
      <trkpt lat="43.46511" lon="-0.6269">
        <ele>230.373047</ele>
        <time>2014-07-08T12:15:52Z</time>
      </trkpt>
      <trkpt lat="43.46507" lon="-0.62731">
        <ele>231.814941</ele>
        <time>2014-07-08T12:16:14Z</time>
      </trkpt>
      <trkpt lat="43.46503" lon="-0.62758">
        <ele>229.892334</ele>
        <time>2014-07-08T12:16:32Z</time>
      </trkpt>
      <trkpt lat="43.46501" lon="-0.62772">
        <ele>229.892334</ele>
        <time>2014-07-08T12:16:54Z</time>
      </trkpt>
      <trkpt lat="43.46497" lon="-0.62802">
        <ele>229.892334</ele>
        <time>2014-07-08T12:17:12Z</time>
      </trkpt>
      <trkpt lat="43.46503" lon="-0.62846">
        <ele>229.411743</ele>
        <time>2014-07-08T12:17:36Z</time>
      </trkpt>
      <trkpt lat="43.46512" lon="-0.62891">
        <ele>228.450439</ele>
        <time>2014-07-08T12:18:01Z</time>
      </trkpt>
      <trkpt lat="43.46517" lon="-0.62942">
        <ele>228.450439</ele>
        <time>2014-07-08T12:18:29Z</time>
      </trkpt>
      <trkpt lat="43.46517" lon="-0.62951">
        <ele>228.450439</ele>
        <time>2014-07-08T12:18:48Z</time>
      </trkpt>
      <trkpt lat="43.46522" lon="-0.62959">
        <ele>227.969727</ele>
        <time>2014-07-08T12:19:26Z</time>
      </trkpt>
      <trkpt lat="43.46525" lon="-0.6296">
        <ele>229.411743</ele>
        <time>2014-07-08T12:19:46Z</time>
      </trkpt>
      <trkpt lat="43.46523" lon="-0.62962">
        <ele>228.931152</ele>
        <time>2014-07-08T12:20:14Z</time>
      </trkpt>
      <trkpt lat="43.46524" lon="-0.62963">
        <ele>228.450439</ele>
        <time>2014-07-08T12:20:22Z</time>
      </trkpt>
      <trkpt lat="43.46543" lon="-0.62989">
        <ele>228.931152</ele>
        <time>2014-07-08T12:20:43Z</time>
      </trkpt>
      <trkpt lat="43.46556" lon="-0.63018">
        <ele>229.411743</ele>
        <time>2014-07-08T12:21:01Z</time>
      </trkpt>
      <trkpt lat="43.46577" lon="-0.63051">
        <ele>229.411743</ele>
        <time>2014-07-08T12:21:25Z</time>
      </trkpt>
      <trkpt lat="43.46597" lon="-0.63084">
        <ele>231.334351</ele>
        <time>2014-07-08T12:21:48Z</time>
      </trkpt>
      <trkpt lat="43.46617" lon="-0.63116">
        <ele>231.334351</ele>
        <time>2014-07-08T12:22:11Z</time>
      </trkpt>
      <trkpt lat="43.46644" lon="-0.6315">
        <ele>232.776489</ele>
        <time>2014-07-08T12:22:38Z</time>
      </trkpt>
      <trkpt lat="43.46674" lon="-0.63186">
        <ele>232.295776</ele>
        <time>2014-07-08T12:23:07Z</time>
      </trkpt>
      <trkpt lat="43.4669" lon="-0.63205">
        <ele>232.295776</ele>
        <time>2014-07-08T12:23:29Z</time>
      </trkpt>
      <trkpt lat="43.46687" lon="-0.6321">
        <ele>231.334351</ele>
        <time>2014-07-08T12:24:05Z</time>
      </trkpt>
      <trkpt lat="43.46684" lon="-0.63205">
        <ele>231.334351</ele>
        <time>2014-07-08T12:24:18Z</time>
      </trkpt>
      <trkpt lat="43.46687" lon="-0.63203">
        <ele>232.295776</ele>
        <time>2014-07-08T12:24:22Z</time>
      </trkpt>
      <trkpt lat="43.46695" lon="-0.63203">
        <ele>232.776489</ele>
        <time>2014-07-08T12:24:39Z</time>
      </trkpt>
      <trkpt lat="43.46691" lon="-0.63205">
        <ele>232.776489</ele>
        <time>2014-07-08T12:24:43Z</time>
      </trkpt>
      <trkpt lat="43.46686" lon="-0.63214">
        <ele>231.334351</ele>
        <time>2014-07-08T12:24:50Z</time>
      </trkpt>
      <trkpt lat="43.46681" lon="-0.63229">
        <ele>229.892334</ele>
        <time>2014-07-08T12:24:59Z</time>
      </trkpt>
      <trkpt lat="43.46671" lon="-0.63265">
        <ele>228.931152</ele>
        <time>2014-07-08T12:25:20Z</time>
      </trkpt>
      <trkpt lat="43.46659" lon="-0.63307">
        <ele>227.489136</ele>
        <time>2014-07-08T12:25:45Z</time>
      </trkpt>
      <trkpt lat="43.46653" lon="-0.63342">
        <ele>226.047119</ele>
        <time>2014-07-08T12:26:06Z</time>
      </trkpt>
      <trkpt lat="43.46646" lon="-0.63382">
        <ele>225.085938</ele>
        <time>2014-07-08T12:26:28Z</time>
      </trkpt>
      <trkpt lat="43.4664" lon="-0.63432">
        <ele>225.085938</ele>
        <time>2014-07-08T12:26:55Z</time>
      </trkpt>
      <trkpt lat="43.46636" lon="-0.63471">
        <ele>224.605225</ele>
        <time>2014-07-08T12:27:16Z</time>
      </trkpt>
      <trkpt lat="43.46637" lon="-0.6352">
        <ele>224.605225</ele>
        <time>2014-07-08T12:27:42Z</time>
      </trkpt>
      <trkpt lat="43.4664" lon="-0.6356">
        <ele>224.124512</ele>
        <time>2014-07-08T12:28:03Z</time>
      </trkpt>
      <trkpt lat="43.46644" lon="-0.63605">
        <ele>223.643799</ele>
        <time>2014-07-08T12:28:27Z</time>
      </trkpt>
      <trkpt lat="43.46646" lon="-0.63651">
        <ele>223.643799</ele>
        <time>2014-07-08T12:28:52Z</time>
      </trkpt>
      <trkpt lat="43.46645" lon="-0.63702">
        <ele>223.643799</ele>
        <time>2014-07-08T12:29:19Z</time>
      </trkpt>
      <trkpt lat="43.46647" lon="-0.63746">
        <ele>222.682495</ele>
        <time>2014-07-08T12:29:43Z</time>
      </trkpt>
      <trkpt lat="43.46658" lon="-0.63791">
        <ele>220.759888</ele>
        <time>2014-07-08T12:30:10Z</time>
      </trkpt>
      <trkpt lat="43.4667" lon="-0.63837">
        <ele>218.83728</ele>
        <time>2014-07-08T12:30:36Z</time>
      </trkpt>
      <trkpt lat="43.46677" lon="-0.63879">
        <ele>217.395386</ele>
        <time>2014-07-08T12:30:59Z</time>
      </trkpt>
      <trkpt lat="43.46674" lon="-0.6392">
        <ele>214.03064</ele>
        <time>2014-07-08T12:31:21Z</time>
      </trkpt>
      <trkpt lat="43.46662" lon="-0.63965">
        <ele>213.069336</ele>
        <time>2014-07-08T12:31:46Z</time>
      </trkpt>
      <trkpt lat="43.46647" lon="-0.64012">
        <ele>213.550049</ele>
        <time>2014-07-08T12:32:13Z</time>
      </trkpt>
      <trkpt lat="43.46638" lon="-0.64051">
        <ele>214.51123</ele>
        <time>2014-07-08T12:32:34Z</time>
      </trkpt>
      <trkpt lat="43.46636" lon="-0.64085">
        <ele>217.875977</ele>
        <time>2014-07-08T12:32:53Z</time>
      </trkpt>
      <trkpt lat="43.46644" lon="-0.64121">
        <ele>216.43396</ele>
        <time>2014-07-08T12:33:14Z</time>
      </trkpt>
      <trkpt lat="43.4665" lon="-0.64141">
        <ele>214.51123</ele>
        <time>2014-07-08T12:33:28Z</time>
      </trkpt>
      <trkpt lat="43.46656" lon="-0.64165">
        <ele>213.069336</ele>
        <time>2014-07-08T12:33:41Z</time>
      </trkpt>
      <trkpt lat="43.4666" lon="-0.64194">
        <ele>210.666016</ele>
        <time>2014-07-08T12:33:57Z</time>
      </trkpt>
      <trkpt lat="43.46664" lon="-0.64232">
        <ele>209.224121</ele>
        <time>2014-07-08T12:34:17Z</time>
      </trkpt>
      <trkpt lat="43.46668" lon="-0.64269">
        <ele>207.782104</ele>
        <time>2014-07-08T12:34:36Z</time>
      </trkpt>
      <trkpt lat="43.46669" lon="-0.64304">
        <ele>205.859497</ele>
        <time>2014-07-08T12:34:54Z</time>
      </trkpt>
      <trkpt lat="43.46669" lon="-0.64307">
        <ele>206.820679</ele>
        <time>2014-07-08T12:34:56Z</time>
      </trkpt>
      <trkpt lat="43.46664" lon="-0.64333">
        <ele>205.378784</ele>
        <time>2014-07-08T12:35:11Z</time>
      </trkpt>
      <trkpt lat="43.46663" lon="-0.64335">
        <ele>205.378784</ele>
        <time>2014-07-08T12:35:13Z</time>
      </trkpt>
      <trkpt lat="43.46661" lon="-0.64343">
        <ele>205.378784</ele>
        <time>2014-07-08T12:35:17Z</time>
      </trkpt>
      <trkpt lat="43.4665" lon="-0.64378">
        <ele>205.378784</ele>
        <time>2014-07-08T12:35:36Z</time>
      </trkpt>
      <trkpt lat="43.4664" lon="-0.64411">
        <ele>204.898071</ele>
        <time>2014-07-08T12:35:54Z</time>
      </trkpt>
      <trkpt lat="43.46629" lon="-0.64444">
        <ele>206.340088</ele>
        <time>2014-07-08T12:36:15Z</time>
      </trkpt>
      <trkpt lat="43.46626" lon="-0.64454">
        <ele>205.378784</ele>
        <time>2014-07-08T12:36:28Z</time>
      </trkpt>
      <trkpt lat="43.46619" lon="-0.64469">
        <ele>205.859497</ele>
        <time>2014-07-08T12:36:44Z</time>
      </trkpt>
      <trkpt lat="43.46613" lon="-0.64492">
        <ele>205.378784</ele>
        <time>2014-07-08T12:37:00Z</time>
      </trkpt>
      <trkpt lat="43.46608" lon="-0.64524">
        <ele>203.93689</ele>
        <time>2014-07-08T12:37:20Z</time>
      </trkpt>
      <trkpt lat="43.46605" lon="-0.64551">
        <ele>203.93689</ele>
        <time>2014-07-08T12:37:35Z</time>
      </trkpt>
      <trkpt lat="43.46601" lon="-0.64575">
        <ele>203.93689</ele>
        <time>2014-07-08T12:37:49Z</time>
      </trkpt>
      <trkpt lat="43.46598" lon="-0.646">
        <ele>203.93689</ele>
        <time>2014-07-08T12:38:02Z</time>
      </trkpt>
      <trkpt lat="43.46598" lon="-0.64608">
        <ele>203.93689</ele>
        <time>2014-07-08T12:38:06Z</time>
      </trkpt>
      <trkpt lat="43.46595" lon="-0.64629">
        <ele>202.975464</ele>
        <time>2014-07-08T12:38:17Z</time>
      </trkpt>
      <trkpt lat="43.46594" lon="-0.64639">
        <ele>202.014282</ele>
        <time>2014-07-08T12:38:22Z</time>
      </trkpt>
      <trkpt lat="43.46592" lon="-0.64664">
        <ele>198.168945</ele>
        <time>2014-07-08T12:38:37Z</time>
      </trkpt>
      <trkpt lat="43.46591" lon="-0.64672">
        <ele>197.688232</ele>
        <time>2014-07-08T12:38:42Z</time>
      </trkpt>
      <trkpt lat="43.46588" lon="-0.64698">
        <ele>194.804321</ele>
        <time>2014-07-08T12:38:56Z</time>
      </trkpt>
      <trkpt lat="43.46588" lon="-0.64706">
        <ele>194.32373</ele>
        <time>2014-07-08T12:39:00Z</time>
      </trkpt>
      <trkpt lat="43.46586" lon="-0.64748">
        <ele>192.881714</ele>
        <time>2014-07-08T12:39:20Z</time>
      </trkpt>
      <trkpt lat="43.46587" lon="-0.64784">
        <ele>191.439575</ele>
        <time>2014-07-08T12:39:39Z</time>
      </trkpt>
      <trkpt lat="43.46589" lon="-0.64813">
        <ele>191.439575</ele>
        <time>2014-07-08T12:39:54Z</time>
      </trkpt>
      <trkpt lat="43.46591" lon="-0.6484">
        <ele>190.478394</ele>
        <time>2014-07-08T12:40:09Z</time>
      </trkpt>
      <trkpt lat="43.46592" lon="-0.64855">
        <ele>190.478394</ele>
        <time>2014-07-08T12:40:17Z</time>
      </trkpt>
      <trkpt lat="43.46599" lon="-0.64878">
        <ele>190.478394</ele>
        <time>2014-07-08T12:40:32Z</time>
      </trkpt>
      <trkpt lat="43.46603" lon="-0.64895">
        <ele>190.478394</ele>
        <time>2014-07-08T12:40:46Z</time>
      </trkpt>
      <trkpt lat="43.4661" lon="-0.64916">
        <ele>189.997681</ele>
        <time>2014-07-08T12:41:01Z</time>
      </trkpt>
      <trkpt lat="43.46611" lon="-0.64925">
        <ele>190.478394</ele>
        <time>2014-07-08T12:41:14Z</time>
      </trkpt>
      <trkpt lat="43.46616" lon="-0.64946">
        <ele>190.958984</ele>
        <time>2014-07-08T12:41:28Z</time>
      </trkpt>
      <trkpt lat="43.46623" lon="-0.64972">
        <ele>191.920288</ele>
        <time>2014-07-08T12:41:48Z</time>
      </trkpt>
      <trkpt lat="43.46632" lon="-0.64998">
        <ele>190.958984</ele>
        <time>2014-07-08T12:42:06Z</time>
      </trkpt>
      <trkpt lat="43.46638" lon="-0.65016">
        <ele>190.958984</ele>
        <time>2014-07-08T12:42:23Z</time>
      </trkpt>
      <trkpt lat="43.46641" lon="-0.65015">
        <ele>190.958984</ele>
        <time>2014-07-08T12:42:37Z</time>
      </trkpt>
      <trkpt lat="43.4664" lon="-0.65016">
        <ele>191.920288</ele>
        <time>2014-07-08T12:42:54Z</time>
      </trkpt>
      <trkpt lat="43.46638" lon="-0.65023">
        <ele>190.958984</ele>
        <time>2014-07-08T12:43:37Z</time>
      </trkpt>
      <trkpt lat="43.46641" lon="-0.65033">
        <ele>190.958984</ele>
        <time>2014-07-08T12:43:59Z</time>
      </trkpt>
      <trkpt lat="43.46641" lon="-0.65037">
        <ele>191.920288</ele>
        <time>2014-07-08T12:44:14Z</time>
      </trkpt>
      <trkpt lat="43.46643" lon="-0.65047">
        <ele>190.958984</ele>
        <time>2014-07-08T12:44:22Z</time>
      </trkpt>
      <trkpt lat="43.46648" lon="-0.6507">
        <ele>190.958984</ele>
        <time>2014-07-08T12:44:36Z</time>
      </trkpt>
      <trkpt lat="43.46651" lon="-0.65098">
        <ele>190.958984</ele>
        <time>2014-07-08T12:44:51Z</time>
      </trkpt>
      <trkpt lat="43.46654" lon="-0.65113">
        <ele>190.958984</ele>
        <time>2014-07-08T12:45:10Z</time>
      </trkpt>
      <trkpt lat="43.46655" lon="-0.65116">
        <ele>190.958984</ele>
        <time>2014-07-08T12:45:12Z</time>
      </trkpt>
      <trkpt lat="43.4666" lon="-0.65143">
        <ele>190.478394</ele>
        <time>2014-07-08T12:45:28Z</time>
      </trkpt>
      <trkpt lat="43.46661" lon="-0.65177">
        <ele>190.478394</ele>
        <time>2014-07-08T12:45:46Z</time>
      </trkpt>
      <trkpt lat="43.46658" lon="-0.65218">
        <ele>190.958984</ele>
        <time>2014-07-08T12:46:07Z</time>
      </trkpt>
      <trkpt lat="43.46656" lon="-0.65256">
        <ele>190.478394</ele>
        <time>2014-07-08T12:46:26Z</time>
      </trkpt>
      <trkpt lat="43.46652" lon="-0.65292">
        <ele>189.997681</ele>
        <time>2014-07-08T12:46:45Z</time>
      </trkpt>
      <trkpt lat="43.46643" lon="-0.65335">
        <ele>189.516968</ele>
        <time>2014-07-08T12:47:09Z</time>
      </trkpt>
      <trkpt lat="43.46641" lon="-0.65348">
        <ele>189.036377</ele>
        <time>2014-07-08T12:47:26Z</time>
      </trkpt>
      <trkpt lat="43.46639" lon="-0.65352">
        <ele>189.997681</ele>
        <time>2014-07-08T12:47:58Z</time>
      </trkpt>
      <trkpt lat="43.4664" lon="-0.65347">
        <ele>189.036377</ele>
        <time>2014-07-08T12:48:14Z</time>
      </trkpt>
      <trkpt lat="43.4664" lon="-0.65352">
        <ele>189.036377</ele>
        <time>2014-07-08T12:48:52Z</time>
      </trkpt>
      <trkpt lat="43.46641" lon="-0.6535">
        <ele>189.516968</ele>
        <time>2014-07-08T12:49:00Z</time>
      </trkpt>
      <trkpt lat="43.46648" lon="-0.65321">
        <ele>189.997681</ele>
        <time>2014-07-08T12:49:20Z</time>
      </trkpt>
      <trkpt lat="43.46655" lon="-0.6528">
        <ele>189.997681</ele>
        <time>2014-07-08T12:49:43Z</time>
      </trkpt>
      <trkpt lat="43.46658" lon="-0.65236">
        <ele>189.516968</ele>
        <time>2014-07-08T12:50:06Z</time>
      </trkpt>
      <trkpt lat="43.46661" lon="-0.65198">
        <ele>190.478394</ele>
        <time>2014-07-08T12:50:27Z</time>
      </trkpt>
      <trkpt lat="43.46663" lon="-0.65155">
        <ele>189.997681</ele>
        <time>2014-07-08T12:50:50Z</time>
      </trkpt>
      <trkpt lat="43.46658" lon="-0.6511">
        <ele>190.958984</ele>
        <time>2014-07-08T12:51:14Z</time>
      </trkpt>
      <trkpt lat="43.4665" lon="-0.65059">
        <ele>191.920288</ele>
        <time>2014-07-08T12:51:42Z</time>
      </trkpt>
      <trkpt lat="43.46643" lon="-0.65032">
        <ele>191.920288</ele>
        <time>2014-07-08T12:52:00Z</time>
      </trkpt>
      <trkpt lat="43.46644" lon="-0.65034">
        <ele>191.920288</ele>
        <time>2014-07-08T12:52:19Z</time>
      </trkpt>
      <trkpt lat="43.46644" lon="-0.65036">
        <ele>191.439575</ele>
        <time>2014-07-08T12:52:23Z</time>
      </trkpt>
      <trkpt lat="43.46646" lon="-0.65039">
        <ele>191.439575</ele>
        <time>2014-07-08T12:52:37Z</time>
      </trkpt>
      <trkpt lat="43.46644" lon="-0.65033">
        <ele>190.958984</ele>
        <time>2014-07-08T12:52:58Z</time>
      </trkpt>
      <trkpt lat="43.46641" lon="-0.65033">
        <ele>191.439575</ele>
        <time>2014-07-08T12:53:15Z</time>
      </trkpt>
      <trkpt lat="43.46643" lon="-0.65031">
        <ele>191.439575</ele>
        <time>2014-07-08T12:53:25Z</time>
      </trkpt>
      <trkpt lat="43.46647" lon="-0.65015">
        <ele>191.920288</ele>
        <time>2014-07-08T12:53:43Z</time>
      </trkpt>
      <trkpt lat="43.46653" lon="-0.65016">
        <ele>191.439575</ele>
        <time>2014-07-08T12:53:54Z</time>
      </trkpt>
      <trkpt lat="43.46672" lon="-0.65019">
        <ele>188.555786</ele>
        <time>2014-07-08T12:54:12Z</time>
      </trkpt>
      <trkpt lat="43.46695" lon="-0.65028">
        <ele>188.075073</ele>
        <time>2014-07-08T12:54:31Z</time>
      </trkpt>
      <trkpt lat="43.46708" lon="-0.65033">
        <ele>185.191162</ele>
        <time>2014-07-08T12:54:43Z</time>
      </trkpt>
      <trkpt lat="43.46714" lon="-0.65035">
        <ele>183.749023</ele>
        <time>2014-07-08T12:54:49Z</time>
      </trkpt>
      <trkpt lat="43.46725" lon="-0.65042">
        <ele>180.384521</ele>
        <time>2014-07-08T12:54:59Z</time>
      </trkpt>
      <trkpt lat="43.46742" lon="-0.65051">
        <ele>178.942627</ele>
        <time>2014-07-08T12:55:14Z</time>
      </trkpt>
      <trkpt lat="43.46743" lon="-0.65051">
        <ele>179.423218</ele>
        <time>2014-07-08T12:55:15Z</time>
      </trkpt>
      <trkpt lat="43.46755" lon="-0.65075">
        <ele>176.058594</ele>
        <time>2014-07-08T12:55:32Z</time>
      </trkpt>
      <trkpt lat="43.46762" lon="-0.6509">
        <ele>175.577881</ele>
        <time>2014-07-08T12:55:49Z</time>
      </trkpt>
      <trkpt lat="43.46773" lon="-0.65103">
        <ele>173.174683</ele>
        <time>2014-07-08T12:56:04Z</time>
      </trkpt>
      <trkpt lat="43.4678" lon="-0.65114">
        <ele>170.290649</ele>
        <time>2014-07-08T12:56:17Z</time>
      </trkpt>
      <trkpt lat="43.46784" lon="-0.65127">
        <ele>169.329468</ele>
        <time>2014-07-08T12:56:28Z</time>
      </trkpt>
      <trkpt lat="43.46789" lon="-0.65145">
        <ele>166.445313</ele>
        <time>2014-07-08T12:56:40Z</time>
      </trkpt>
      <trkpt lat="43.46793" lon="-0.65151">
        <ele>165.003418</ele>
        <time>2014-07-08T12:56:46Z</time>
      </trkpt>
      <trkpt lat="43.46796" lon="-0.65163">
        <ele>164.042114</ele>
        <time>2014-07-08T12:56:59Z</time>
      </trkpt>
      <trkpt lat="43.46801" lon="-0.65168">
        <ele>163.561523</ele>
        <time>2014-07-08T12:57:10Z</time>
      </trkpt>
      <trkpt lat="43.46813" lon="-0.6518">
        <ele>161.158203</ele>
        <time>2014-07-08T12:57:27Z</time>
      </trkpt>
      <trkpt lat="43.46827" lon="-0.65193">
        <ele>157.312866</ele>
        <time>2014-07-08T12:57:44Z</time>
      </trkpt>
      <trkpt lat="43.46831" lon="-0.65203">
        <ele>155.870972</ele>
        <time>2014-07-08T12:57:53Z</time>
      </trkpt>
      <trkpt lat="43.46836" lon="-0.65218">
        <ele>152.506348</ele>
        <time>2014-07-08T12:58:05Z</time>
      </trkpt>
      <trkpt lat="43.46847" lon="-0.65242">
        <ele>151.064209</ele>
        <time>2014-07-08T12:58:23Z</time>
      </trkpt>
      <trkpt lat="43.46857" lon="-0.6526">
        <ele>147.699707</ele>
        <time>2014-07-08T12:58:40Z</time>
      </trkpt>
      <trkpt lat="43.46866" lon="-0.65279">
        <ele>144.335205</ele>
        <time>2014-07-08T12:58:57Z</time>
      </trkpt>
      <trkpt lat="43.46868" lon="-0.65288">
        <ele>142.893066</ele>
        <time>2014-07-08T12:59:04Z</time>
      </trkpt>
      <trkpt lat="43.46867" lon="-0.65311">
        <ele>141.931763</ele>
        <time>2014-07-08T12:59:17Z</time>
      </trkpt>
      <trkpt lat="43.46869" lon="-0.65334">
        <ele>140.970459</ele>
        <time>2014-07-08T12:59:31Z</time>
      </trkpt>
      <trkpt lat="43.46871" lon="-0.65348">
        <ele>138.086548</ele>
        <time>2014-07-08T12:59:42Z</time>
      </trkpt>
      <trkpt lat="43.46871" lon="-0.65354">
        <ele>136.16394</ele>
        <time>2014-07-08T12:59:47Z</time>
      </trkpt>
      <trkpt lat="43.46873" lon="-0.65371">
        <ele>134.241211</ele>
        <time>2014-07-08T13:00:03Z</time>
      </trkpt>
      <trkpt lat="43.46873" lon="-0.65384">
        <ele>132.799316</ele>
        <time>2014-07-08T13:00:15Z</time>
      </trkpt>
      <trkpt lat="43.46875" lon="-0.65391">
        <ele>131.3573</ele>
        <time>2014-07-08T13:00:20Z</time>
      </trkpt>
      <trkpt lat="43.46879" lon="-0.65409">
        <ele>129.434692</ele>
        <time>2014-07-08T13:00:31Z</time>
      </trkpt>
      <trkpt lat="43.46878" lon="-0.65432">
        <ele>128.954102</ele>
        <time>2014-07-08T13:00:44Z</time>
      </trkpt>
      <trkpt lat="43.4688" lon="-0.65447">
        <ele>127.511963</ele>
        <time>2014-07-08T13:00:56Z</time>
      </trkpt>
      <trkpt lat="43.46882" lon="-0.65452">
        <ele>127.031372</ele>
        <time>2014-07-08T13:01:00Z</time>
      </trkpt>
      <trkpt lat="43.46883" lon="-0.65475">
        <ele>126.550659</ele>
        <time>2014-07-08T13:01:21Z</time>
      </trkpt>
      <trkpt lat="43.46884" lon="-0.65481">
        <ele>126.550659</ele>
        <time>2014-07-08T13:01:44Z</time>
      </trkpt>
      <trkpt lat="43.46887" lon="-0.65498">
        <ele>126.069946</ele>
        <time>2014-07-08T13:01:57Z</time>
      </trkpt>
      <trkpt lat="43.46888" lon="-0.65514">
        <ele>125.108765</ele>
        <time>2014-07-08T13:02:08Z</time>
      </trkpt>
      <trkpt lat="43.46887" lon="-0.65528">
        <ele>124.628052</ele>
        <time>2014-07-08T13:02:23Z</time>
      </trkpt>
      <trkpt lat="43.46884" lon="-0.65541">
        <ele>124.147339</ele>
        <time>2014-07-08T13:02:31Z</time>
      </trkpt>
      <trkpt lat="43.46888" lon="-0.65563">
        <ele>125.589355</ele>
        <time>2014-07-08T13:02:47Z</time>
      </trkpt>
      <trkpt lat="43.46886" lon="-0.65584">
        <ele>125.108765</ele>
        <time>2014-07-08T13:03:01Z</time>
      </trkpt>
      <trkpt lat="43.46886" lon="-0.65603">
        <ele>124.628052</ele>
        <time>2014-07-08T13:03:15Z</time>
      </trkpt>
      <trkpt lat="43.46885" lon="-0.65609">
        <ele>123.666748</ele>
        <time>2014-07-08T13:03:18Z</time>
      </trkpt>
      <trkpt lat="43.46884" lon="-0.6562">
        <ele>123.666748</ele>
        <time>2014-07-08T13:03:24Z</time>
      </trkpt>
      <trkpt lat="43.46883" lon="-0.65629">
        <ele>123.666748</ele>
        <time>2014-07-08T13:03:32Z</time>
      </trkpt>
      <trkpt lat="43.46885" lon="-0.65648">
        <ele>123.186157</ele>
        <time>2014-07-08T13:03:45Z</time>
      </trkpt>
      <trkpt lat="43.46885" lon="-0.65662">
        <ele>122.224731</ele>
        <time>2014-07-08T13:03:54Z</time>
      </trkpt>
      <trkpt lat="43.46888" lon="-0.65678">
        <ele>121.744141</ele>
        <time>2014-07-08T13:04:05Z</time>
      </trkpt>
      <trkpt lat="43.46889" lon="-0.65702">
        <ele>122.224731</ele>
        <time>2014-07-08T13:04:19Z</time>
      </trkpt>
      <trkpt lat="43.46893" lon="-0.65721">
        <ele>122.705444</ele>
        <time>2014-07-08T13:04:32Z</time>
      </trkpt>
      <trkpt lat="43.46893" lon="-0.65726">
        <ele>122.705444</ele>
        <time>2014-07-08T13:04:35Z</time>
      </trkpt>
      <trkpt lat="43.46891" lon="-0.65731">
        <ele>123.186157</ele>
        <time>2014-07-08T13:04:39Z</time>
      </trkpt>
      <trkpt lat="43.4689" lon="-0.65741">
        <ele>123.186157</ele>
        <time>2014-07-08T13:04:45Z</time>
      </trkpt>
      <trkpt lat="43.46893" lon="-0.65771">
        <ele>123.186157</ele>
        <time>2014-07-08T13:05:00Z</time>
      </trkpt>
      <trkpt lat="43.46893" lon="-0.65773">
        <ele>123.186157</ele>
        <time>2014-07-08T13:05:01Z</time>
      </trkpt>
      <trkpt lat="43.46895" lon="-0.65793">
        <ele>123.186157</ele>
        <time>2014-07-08T13:05:13Z</time>
      </trkpt>
      <trkpt lat="43.46903" lon="-0.65809">
        <ele>120.782837</ele>
        <time>2014-07-08T13:05:27Z</time>
      </trkpt>
      <trkpt lat="43.46904" lon="-0.65829">
        <ele>118.379395</ele>
        <time>2014-07-08T13:05:42Z</time>
      </trkpt>
      <trkpt lat="43.46908" lon="-0.65848">
        <ele>115.976196</ele>
        <time>2014-07-08T13:05:56Z</time>
      </trkpt>
      <trkpt lat="43.46911" lon="-0.65868">
        <ele>115.976196</ele>
        <time>2014-07-08T13:06:11Z</time>
      </trkpt>
      <trkpt lat="43.46917" lon="-0.65882">
        <ele>115.976196</ele>
        <time>2014-07-08T13:06:22Z</time>
      </trkpt>
      <trkpt lat="43.46918" lon="-0.65897">
        <ele>115.014893</ele>
        <time>2014-07-08T13:06:32Z</time>
      </trkpt>
      <trkpt lat="43.46919" lon="-0.65915">
        <ele>114.53418</ele>
        <time>2014-07-08T13:06:44Z</time>
      </trkpt>
      <trkpt lat="43.46922" lon="-0.65933">
        <ele>113.092285</ele>
        <time>2014-07-08T13:06:56Z</time>
      </trkpt>
      <trkpt lat="43.46925" lon="-0.65949">
        <ele>113.572998</ele>
        <time>2014-07-08T13:07:10Z</time>
      </trkpt>
      <trkpt lat="43.46926" lon="-0.65954">
        <ele>113.572998</ele>
        <time>2014-07-08T13:07:15Z</time>
      </trkpt>
      <trkpt lat="43.46928" lon="-0.65968">
        <ele>113.092285</ele>
        <time>2014-07-08T13:07:29Z</time>
      </trkpt>
      <trkpt lat="43.46932" lon="-0.65975">
        <ele>113.092285</ele>
        <time>2014-07-08T13:07:57Z</time>
      </trkpt>
      <trkpt lat="43.46939" lon="-0.6597">
        <ele>113.572998</ele>
        <time>2014-07-08T13:08:07Z</time>
      </trkpt>
      <trkpt lat="43.46935" lon="-0.65966">
        <ele>113.092285</ele>
        <time>2014-07-08T13:08:16Z</time>
      </trkpt>
      <trkpt lat="43.46938" lon="-0.6596">
        <ele>113.092285</ele>
        <time>2014-07-08T13:08:23Z</time>
      </trkpt>
      <trkpt lat="43.46937" lon="-0.65957">
        <ele>113.572998</ele>
        <time>2014-07-08T13:08:35Z</time>
      </trkpt>
      <trkpt lat="43.4693" lon="-0.6597">
        <ele>113.572998</ele>
        <time>2014-07-08T13:08:59Z</time>
      </trkpt>
      <trkpt lat="43.46931" lon="-0.65971">
        <ele>113.572998</ele>
        <time>2014-07-08T13:09:00Z</time>
      </trkpt>
      <trkpt lat="43.46939" lon="-0.65975">
        <ele>113.092285</ele>
        <time>2014-07-08T13:09:11Z</time>
      </trkpt>
      <trkpt lat="43.46944" lon="-0.65978">
        <ele>113.572998</ele>
        <time>2014-07-08T13:09:22Z</time>
      </trkpt>
      <trkpt lat="43.46958" lon="-0.65978">
        <ele>114.053589</ele>
        <time>2014-07-08T13:09:39Z</time>
      </trkpt>
      <trkpt lat="43.46963" lon="-0.65981">
        <ele>116.456787</ele>
        <time>2014-07-08T13:09:51Z</time>
      </trkpt>
      <trkpt lat="43.46965" lon="-0.65985">
        <ele>117.418213</ele>
        <time>2014-07-08T13:10:03Z</time>
      </trkpt>
      <trkpt lat="43.46966" lon="-0.65995">
        <ele>117.898804</ele>
        <time>2014-07-08T13:10:10Z</time>
      </trkpt>
      <trkpt lat="43.46969" lon="-0.66013">
        <ele>119.821411</ele>
        <time>2014-07-08T13:10:21Z</time>
      </trkpt>
      <trkpt lat="43.46968" lon="-0.66035">
        <ele>119.34082</ele>
        <time>2014-07-08T13:10:35Z</time>
      </trkpt>
      <trkpt lat="43.4697" lon="-0.66059">
        <ele>119.34082</ele>
        <time>2014-07-08T13:10:50Z</time>
      </trkpt>
      <trkpt lat="43.46969" lon="-0.66093">
        <ele>119.821411</ele>
        <time>2014-07-08T13:11:07Z</time>
      </trkpt>
      <trkpt lat="43.4697" lon="-0.66116">
        <ele>119.821411</ele>
        <time>2014-07-08T13:11:23Z</time>
      </trkpt>
      <trkpt lat="43.46971" lon="-0.6613">
        <ele>118.860107</ele>
        <time>2014-07-08T13:11:32Z</time>
      </trkpt>
      <trkpt lat="43.46973" lon="-0.66132">
        <ele>119.821411</ele>
        <time>2014-07-08T13:11:35Z</time>
      </trkpt>
      <trkpt lat="43.46975" lon="-0.66133">
        <ele>119.34082</ele>
        <time>2014-07-08T13:11:37Z</time>
      </trkpt>
      <trkpt lat="43.46977" lon="-0.66162">
        <ele>119.34082</ele>
        <time>2014-07-08T13:11:55Z</time>
      </trkpt>
      <trkpt lat="43.46982" lon="-0.66192">
        <ele>118.860107</ele>
        <time>2014-07-08T13:12:14Z</time>
      </trkpt>
      <trkpt lat="43.46984" lon="-0.66223">
        <ele>118.379395</ele>
        <time>2014-07-08T13:12:31Z</time>
      </trkpt>
      <trkpt lat="43.46981" lon="-0.66251">
        <ele>118.379395</ele>
        <time>2014-07-08T13:12:46Z</time>
      </trkpt>
      <trkpt lat="43.46981" lon="-0.66256">
        <ele>117.898804</ele>
        <time>2014-07-08T13:12:50Z</time>
      </trkpt>
      <trkpt lat="43.4698" lon="-0.66261">
        <ele>118.379395</ele>
        <time>2014-07-08T13:12:53Z</time>
      </trkpt>
      <trkpt lat="43.46983" lon="-0.66273">
        <ele>118.379395</ele>
        <time>2014-07-08T13:13:02Z</time>
      </trkpt>
      <trkpt lat="43.46984" lon="-0.66283">
        <ele>118.860107</ele>
        <time>2014-07-08T13:13:08Z</time>
      </trkpt>
      <trkpt lat="43.46991" lon="-0.66312">
        <ele>116.9375</ele>
        <time>2014-07-08T13:13:25Z</time>
      </trkpt>
      <trkpt lat="43.46995" lon="-0.66326">
        <ele>114.053589</ele>
        <time>2014-07-08T13:13:34Z</time>
      </trkpt>
      <trkpt lat="43.47006" lon="-0.66341">
        <ele>113.572998</ele>
        <time>2014-07-08T13:13:51Z</time>
      </trkpt>
      <trkpt lat="43.47012" lon="-0.66353">
        <ele>114.053589</ele>
        <time>2014-07-08T13:14:03Z</time>
      </trkpt>
      <trkpt lat="43.47012" lon="-0.66354">
        <ele>113.572998</ele>
        <time>2014-07-08T13:14:04Z</time>
      </trkpt>
      <trkpt lat="43.47014" lon="-0.66375">
        <ele>114.053589</ele>
        <time>2014-07-08T13:14:21Z</time>
      </trkpt>
      <trkpt lat="43.47014" lon="-0.66376">
        <ele>113.572998</ele>
        <time>2014-07-08T13:14:23Z</time>
      </trkpt>
      <trkpt lat="43.47002" lon="-0.66396">
        <ele>114.53418</ele>
        <time>2014-07-08T13:14:41Z</time>
      </trkpt>
      <trkpt lat="43.47001" lon="-0.66396">
        <ele>114.53418</ele>
        <time>2014-07-08T13:14:42Z</time>
      </trkpt>
      <trkpt lat="43.46994" lon="-0.66417">
        <ele>115.495605</ele>
        <time>2014-07-08T13:14:56Z</time>
      </trkpt>
      <trkpt lat="43.46993" lon="-0.66446">
        <ele>115.976196</ele>
        <time>2014-07-08T13:15:14Z</time>
      </trkpt>
      <trkpt lat="43.46991" lon="-0.66478">
        <ele>115.495605</ele>
        <time>2014-07-08T13:15:32Z</time>
      </trkpt>
      <trkpt lat="43.46987" lon="-0.66517">
        <ele>116.456787</ele>
        <time>2014-07-08T13:15:54Z</time>
      </trkpt>
      <trkpt lat="43.46985" lon="-0.66541">
        <ele>117.898804</ele>
        <time>2014-07-08T13:16:11Z</time>
      </trkpt>
      <trkpt lat="43.46981" lon="-0.6657">
        <ele>117.898804</ele>
        <time>2014-07-08T13:16:28Z</time>
      </trkpt>
      <trkpt lat="43.46978" lon="-0.66604">
        <ele>120.302124</ele>
        <time>2014-07-08T13:16:47Z</time>
      </trkpt>
      <trkpt lat="43.46972" lon="-0.66638">
        <ele>120.782837</ele>
        <time>2014-07-08T13:17:07Z</time>
      </trkpt>
      <trkpt lat="43.46973" lon="-0.66655">
        <ele>123.186157</ele>
        <time>2014-07-08T13:17:17Z</time>
      </trkpt>
      <trkpt lat="43.46978" lon="-0.66681">
        <ele>124.147339</ele>
        <time>2014-07-08T13:17:33Z</time>
      </trkpt>
      <trkpt lat="43.46977" lon="-0.66698">
        <ele>123.666748</ele>
        <time>2014-07-08T13:17:45Z</time>
      </trkpt>
      <trkpt lat="43.46976" lon="-0.66743">
        <ele>123.186157</ele>
        <time>2014-07-08T13:18:10Z</time>
      </trkpt>
      <trkpt lat="43.46988" lon="-0.66777">
        <ele>123.186157</ele>
        <time>2014-07-08T13:18:31Z</time>
      </trkpt>
      <trkpt lat="43.46992" lon="-0.66797">
        <ele>123.666748</ele>
        <time>2014-07-08T13:18:46Z</time>
      </trkpt>
      <trkpt lat="43.4699" lon="-0.66812">
        <ele>125.589355</ele>
        <time>2014-07-08T13:19:06Z</time>
      </trkpt>
      <trkpt lat="43.46993" lon="-0.66814">
        <ele>126.069946</ele>
        <time>2014-07-08T13:19:20Z</time>
      </trkpt>
      <trkpt lat="43.46994" lon="-0.66814">
        <ele>126.069946</ele>
        <time>2014-07-08T13:19:24Z</time>
      </trkpt>
      <trkpt lat="43.47015" lon="-0.66805">
        <ele>127.511963</ele>
        <time>2014-07-08T13:19:45Z</time>
      </trkpt>
      <trkpt lat="43.47023" lon="-0.66802">
        <ele>127.992554</ele>
        <time>2014-07-08T13:19:53Z</time>
      </trkpt>
      <trkpt lat="43.47032" lon="-0.66797">
        <ele>128.473389</ele>
        <time>2014-07-08T13:20:09Z</time>
      </trkpt>
      <trkpt lat="43.47055" lon="-0.66784">
        <ele>127.992554</ele>
        <time>2014-07-08T13:20:28Z</time>
      </trkpt>
      <trkpt lat="43.47084" lon="-0.66768">
        <ele>129.434692</ele>
        <time>2014-07-08T13:20:52Z</time>
      </trkpt>
      <trkpt lat="43.47118" lon="-0.66762">
        <ele>129.915283</ele>
        <time>2014-07-08T13:21:17Z</time>
      </trkpt>
      <trkpt lat="43.47136" lon="-0.66763">
        <ele>131.3573</ele>
        <time>2014-07-08T13:21:31Z</time>
      </trkpt>
      <trkpt lat="43.47168" lon="-0.66764">
        <ele>132.318604</ele>
        <time>2014-07-08T13:21:55Z</time>
      </trkpt>
      <trkpt lat="43.47191" lon="-0.66769">
        <ele>133.279907</ele>
        <time>2014-07-08T13:22:15Z</time>
      </trkpt>
      <trkpt lat="43.47208" lon="-0.66777">
        <ele>134.241211</ele>
        <time>2014-07-08T13:22:29Z</time>
      </trkpt>
      <trkpt lat="43.47233" lon="-0.66784">
        <ele>134.721924</ele>
        <time>2014-07-08T13:22:48Z</time>
      </trkpt>
      <trkpt lat="43.47257" lon="-0.66779">
        <ele>136.16394</ele>
        <time>2014-07-08T13:23:08Z</time>
      </trkpt>
      <trkpt lat="43.4728" lon="-0.66774">
        <ele>138.567261</ele>
        <time>2014-07-08T13:23:26Z</time>
      </trkpt>
      <trkpt lat="43.47299" lon="-0.66778">
        <ele>141.931763</ele>
        <time>2014-07-08T13:23:43Z</time>
      </trkpt>
      <trkpt lat="43.47317" lon="-0.66781">
        <ele>144.815796</ele>
        <time>2014-07-08T13:23:59Z</time>
      </trkpt>
      <trkpt lat="43.47336" lon="-0.66782">
        <ele>147.699707</ele>
        <time>2014-07-08T13:24:16Z</time>
      </trkpt>
      <trkpt lat="43.47352" lon="-0.66784">
        <ele>151.064209</ele>
        <time>2014-07-08T13:24:31Z</time>
      </trkpt>
      <trkpt lat="43.47353" lon="-0.66784">
        <ele>151.064209</ele>
        <time>2014-07-08T13:24:32Z</time>
      </trkpt>
      <trkpt lat="43.47369" lon="-0.66786">
        <ele>154.428955</ele>
        <time>2014-07-08T13:24:46Z</time>
      </trkpt>
      <trkpt lat="43.47374" lon="-0.66785">
        <ele>155.390259</ele>
        <time>2014-07-08T13:24:50Z</time>
      </trkpt>
      <trkpt lat="43.47376" lon="-0.66785">
        <ele>155.870972</ele>
        <time>2014-07-08T13:24:52Z</time>
      </trkpt>
      <trkpt lat="43.47392" lon="-0.66783">
        <ele>159.716187</ele>
        <time>2014-07-08T13:25:08Z</time>
      </trkpt>
      <trkpt lat="43.47394" lon="-0.66782">
        <ele>160.67749</ele>
        <time>2014-07-08T13:25:10Z</time>
      </trkpt>
      <trkpt lat="43.47406" lon="-0.66778">
        <ele>163.561523</ele>
        <time>2014-07-08T13:25:21Z</time>
      </trkpt>
      <trkpt lat="43.47423" lon="-0.66776">
        <ele>164.522705</ele>
        <time>2014-07-08T13:25:36Z</time>
      </trkpt>
      <trkpt lat="43.47438" lon="-0.66778">
        <ele>166.926025</ele>
        <time>2014-07-08T13:25:50Z</time>
      </trkpt>
      <trkpt lat="43.47451" lon="-0.66783">
        <ele>169.810059</ele>
        <time>2014-07-08T13:26:04Z</time>
      </trkpt>
      <trkpt lat="43.4746" lon="-0.66785">
        <ele>172.69397</ele>
        <time>2014-07-08T13:26:13Z</time>
      </trkpt>
      <trkpt lat="43.47474" lon="-0.6679">
        <ele>174.135864</ele>
        <time>2014-07-08T13:26:26Z</time>
      </trkpt>
      <trkpt lat="43.47484" lon="-0.66792">
        <ele>177.02002</ele>
        <time>2014-07-08T13:26:35Z</time>
      </trkpt>
      <trkpt lat="43.47491" lon="-0.66792">
        <ele>179.423218</ele>
        <time>2014-07-08T13:26:42Z</time>
      </trkpt>
      <trkpt lat="43.47507" lon="-0.66795">
        <ele>181.345825</ele>
        <time>2014-07-08T13:26:56Z</time>
      </trkpt>
      <trkpt lat="43.47521" lon="-0.66796">
        <ele>182.307129</ele>
        <time>2014-07-08T13:27:09Z</time>
      </trkpt>
      <trkpt lat="43.47526" lon="-0.66794">
        <ele>183.268433</ele>
        <time>2014-07-08T13:27:16Z</time>
      </trkpt>
      <trkpt lat="43.47549" lon="-0.66777">
        <ele>183.749023</ele>
        <time>2014-07-08T13:27:33Z</time>
      </trkpt>
      <trkpt lat="43.47558" lon="-0.66765">
        <ele>185.191162</ele>
        <time>2014-07-08T13:27:46Z</time>
      </trkpt>
      <trkpt lat="43.47568" lon="-0.66762">
        <ele>187.11377</ele>
        <time>2014-07-08T13:27:54Z</time>
      </trkpt>
      <trkpt lat="43.47579" lon="-0.6676">
        <ele>189.516968</ele>
        <time>2014-07-08T13:28:07Z</time>
      </trkpt>
      <trkpt lat="43.47586" lon="-0.66747">
        <ele>189.516968</ele>
        <time>2014-07-08T13:28:23Z</time>
      </trkpt>
      <trkpt lat="43.47582" lon="-0.66754">
        <ele>189.036377</ele>
        <time>2014-07-08T13:28:37Z</time>
      </trkpt>
      <trkpt lat="43.47577" lon="-0.66755">
        <ele>188.555786</ele>
        <time>2014-07-08T13:28:59Z</time>
      </trkpt>
      <trkpt lat="43.47574" lon="-0.66757">
        <ele>187.59436</ele>
        <time>2014-07-08T13:29:14Z</time>
      </trkpt>
      <trkpt lat="43.47572" lon="-0.66757">
        <ele>187.11377</ele>
        <time>2014-07-08T13:29:32Z</time>
      </trkpt>
      <trkpt lat="43.47585" lon="-0.66754">
        <ele>188.555786</ele>
        <time>2014-07-08T13:29:56Z</time>
      </trkpt>
      <trkpt lat="43.47592" lon="-0.66739">
        <ele>189.036377</ele>
        <time>2014-07-08T13:30:08Z</time>
      </trkpt>
      <trkpt lat="43.47606" lon="-0.66718">
        <ele>189.516968</ele>
        <time>2014-07-08T13:30:24Z</time>
      </trkpt>
      <trkpt lat="43.47611" lon="-0.66704">
        <ele>189.997681</ele>
        <time>2014-07-08T13:30:35Z</time>
      </trkpt>
      <trkpt lat="43.47614" lon="-0.66692">
        <ele>189.516968</ele>
        <time>2014-07-08T13:30:44Z</time>
      </trkpt>
      <trkpt lat="43.47627" lon="-0.66668">
        <ele>188.075073</ele>
        <time>2014-07-08T13:30:59Z</time>
      </trkpt>
      <trkpt lat="43.47637" lon="-0.66641">
        <ele>188.075073</ele>
        <time>2014-07-08T13:31:15Z</time>
      </trkpt>
      <trkpt lat="43.47637" lon="-0.66608">
        <ele>187.59436</ele>
        <time>2014-07-08T13:31:34Z</time>
      </trkpt>
      <trkpt lat="43.47637" lon="-0.66599">
        <ele>188.075073</ele>
        <time>2014-07-08T13:31:40Z</time>
      </trkpt>
      <trkpt lat="43.47638" lon="-0.66586">
        <ele>188.075073</ele>
        <time>2014-07-08T13:31:47Z</time>
      </trkpt>
      <trkpt lat="43.47639" lon="-0.66563">
        <ele>189.036377</ele>
        <time>2014-07-08T13:32:00Z</time>
      </trkpt>
      <trkpt lat="43.47642" lon="-0.6653">
        <ele>189.997681</ele>
        <time>2014-07-08T13:32:18Z</time>
      </trkpt>
      <trkpt lat="43.47642" lon="-0.6651">
        <ele>190.478394</ele>
        <time>2014-07-08T13:32:30Z</time>
      </trkpt>
      <trkpt lat="43.47642" lon="-0.66504">
        <ele>190.958984</ele>
        <time>2014-07-08T13:32:33Z</time>
      </trkpt>
      <trkpt lat="43.47646" lon="-0.66478">
        <ele>190.478394</ele>
        <time>2014-07-08T13:32:49Z</time>
      </trkpt>
      <trkpt lat="43.47647" lon="-0.6647">
        <ele>190.478394</ele>
        <time>2014-07-08T13:32:53Z</time>
      </trkpt>
      <trkpt lat="43.47654" lon="-0.66448">
        <ele>189.997681</ele>
        <time>2014-07-08T13:33:05Z</time>
      </trkpt>
      <trkpt lat="43.4766" lon="-0.66416">
        <ele>189.997681</ele>
        <time>2014-07-08T13:33:22Z</time>
      </trkpt>
      <trkpt lat="43.47667" lon="-0.66397">
        <ele>189.036377</ele>
        <time>2014-07-08T13:33:33Z</time>
      </trkpt>
      <trkpt lat="43.47679" lon="-0.66352">
        <ele>189.516968</ele>
        <time>2014-07-08T13:33:57Z</time>
      </trkpt>
      <trkpt lat="43.47684" lon="-0.66312">
        <ele>189.997681</ele>
        <time>2014-07-08T13:34:19Z</time>
      </trkpt>
      <trkpt lat="43.47685" lon="-0.66298">
        <ele>189.997681</ele>
        <time>2014-07-08T13:34:27Z</time>
      </trkpt>
      <trkpt lat="43.47683" lon="-0.66277">
        <ele>190.958984</ele>
        <time>2014-07-08T13:34:40Z</time>
      </trkpt>
      <trkpt lat="43.47687" lon="-0.66257">
        <ele>190.958984</ele>
        <time>2014-07-08T13:34:52Z</time>
      </trkpt>
      <trkpt lat="43.47687" lon="-0.66246">
        <ele>190.958984</ele>
        <time>2014-07-08T13:34:58Z</time>
      </trkpt>
      <trkpt lat="43.47694" lon="-0.66221">
        <ele>190.958984</ele>
        <time>2014-07-08T13:35:12Z</time>
      </trkpt>
      <trkpt lat="43.47697" lon="-0.66198">
        <ele>190.958984</ele>
        <time>2014-07-08T13:35:25Z</time>
      </trkpt>
      <trkpt lat="43.477" lon="-0.66173">
        <ele>190.958984</ele>
        <time>2014-07-08T13:35:39Z</time>
      </trkpt>
      <trkpt lat="43.47701" lon="-0.66166">
        <ele>190.478394</ele>
        <time>2014-07-08T13:35:43Z</time>
      </trkpt>
      <trkpt lat="43.47702" lon="-0.66161">
        <ele>190.478394</ele>
        <time>2014-07-08T13:35:46Z</time>
      </trkpt>
      <trkpt lat="43.47705" lon="-0.66147">
        <ele>190.478394</ele>
        <time>2014-07-08T13:35:54Z</time>
      </trkpt>
      <trkpt lat="43.47706" lon="-0.66139">
        <ele>191.439575</ele>
        <time>2014-07-08T13:35:58Z</time>
      </trkpt>
      <trkpt lat="43.47711" lon="-0.66114">
        <ele>191.439575</ele>
        <time>2014-07-08T13:36:13Z</time>
      </trkpt>
      <trkpt lat="43.47714" lon="-0.66083">
        <ele>192.401123</ele>
        <time>2014-07-08T13:36:30Z</time>
      </trkpt>
      <trkpt lat="43.47716" lon="-0.66048">
        <ele>193.843018</ele>
        <time>2014-07-08T13:36:49Z</time>
      </trkpt>
      <trkpt lat="43.47716" lon="-0.66042">
        <ele>193.362305</ele>
        <time>2014-07-08T13:36:52Z</time>
      </trkpt>
      <trkpt lat="43.47714" lon="-0.66026">
        <ele>193.843018</ele>
        <time>2014-07-08T13:37:01Z</time>
      </trkpt>
      <trkpt lat="43.47718" lon="-0.65989">
        <ele>192.401123</ele>
        <time>2014-07-08T13:37:23Z</time>
      </trkpt>
      <trkpt lat="43.47722" lon="-0.65966">
        <ele>189.997681</ele>
        <time>2014-07-08T13:37:37Z</time>
      </trkpt>
      <trkpt lat="43.47725" lon="-0.65936">
        <ele>190.478394</ele>
        <time>2014-07-08T13:37:56Z</time>
      </trkpt>
      <trkpt lat="43.47725" lon="-0.65905">
        <ele>189.997681</ele>
        <time>2014-07-08T13:38:15Z</time>
      </trkpt>
      <trkpt lat="43.4772" lon="-0.65871">
        <ele>190.958984</ele>
        <time>2014-07-08T13:38:34Z</time>
      </trkpt>
      <trkpt lat="43.47712" lon="-0.65835">
        <ele>191.439575</ele>
        <time>2014-07-08T13:38:56Z</time>
      </trkpt>
      <trkpt lat="43.47707" lon="-0.658">
        <ele>192.881714</ele>
        <time>2014-07-08T13:39:17Z</time>
      </trkpt>
      <trkpt lat="43.47701" lon="-0.65766">
        <ele>193.362305</ele>
        <time>2014-07-08T13:39:37Z</time>
      </trkpt>
      <trkpt lat="43.47693" lon="-0.65733">
        <ele>191.920288</ele>
        <time>2014-07-08T13:39:58Z</time>
      </trkpt>
      <trkpt lat="43.47695" lon="-0.65696">
        <ele>189.516968</ele>
        <time>2014-07-08T13:40:22Z</time>
      </trkpt>
      <trkpt lat="43.47699" lon="-0.65673">
        <ele>185.671753</ele>
        <time>2014-07-08T13:40:36Z</time>
      </trkpt>
      <trkpt lat="43.47699" lon="-0.65637">
        <ele>186.152466</ele>
        <time>2014-07-08T13:40:58Z</time>
      </trkpt>
      <trkpt lat="43.477" lon="-0.65607">
        <ele>185.671753</ele>
        <time>2014-07-08T13:41:15Z</time>
      </trkpt>
      <trkpt lat="43.47697" lon="-0.65578">
        <ele>187.59436</ele>
        <time>2014-07-08T13:41:33Z</time>
      </trkpt>
      <trkpt lat="43.47698" lon="-0.65553">
        <ele>190.958984</ele>
        <time>2014-07-08T13:41:49Z</time>
      </trkpt>
      <trkpt lat="43.47698" lon="-0.65528">
        <ele>191.920288</ele>
        <time>2014-07-08T13:42:05Z</time>
      </trkpt>
      <trkpt lat="43.47696" lon="-0.65499">
        <ele>193.362305</ele>
        <time>2014-07-08T13:42:23Z</time>
      </trkpt>
      <trkpt lat="43.47697" lon="-0.65464">
        <ele>195.284912</ele>
        <time>2014-07-08T13:42:44Z</time>
      </trkpt>
      <trkpt lat="43.47692" lon="-0.65421">
        <ele>195.765625</ele>
        <time>2014-07-08T13:43:09Z</time>
      </trkpt>
      <trkpt lat="43.47679" lon="-0.65385">
        <ele>195.765625</ele>
        <time>2014-07-08T13:43:32Z</time>
      </trkpt>
      <trkpt lat="43.47662" lon="-0.65348">
        <ele>195.765625</ele>
        <time>2014-07-08T13:43:57Z</time>
      </trkpt>
      <trkpt lat="43.47646" lon="-0.65313">
        <ele>197.20752</ele>
        <time>2014-07-08T13:44:20Z</time>
      </trkpt>
      <trkpt lat="43.47628" lon="-0.6528">
        <ele>197.688232</ele>
        <time>2014-07-08T13:44:43Z</time>
      </trkpt>
      <trkpt lat="43.47609" lon="-0.65254">
        <ele>199.61084</ele>
        <time>2014-07-08T13:45:03Z</time>
      </trkpt>
      <trkpt lat="43.47593" lon="-0.65238">
        <ele>202.014282</ele>
        <time>2014-07-08T13:45:18Z</time>
      </trkpt>
      <trkpt lat="43.47568" lon="-0.65217">
        <ele>202.494873</ele>
        <time>2014-07-08T13:45:41Z</time>
      </trkpt>
      <trkpt lat="43.47542" lon="-0.65196">
        <ele>202.494873</ele>
        <time>2014-07-08T13:46:04Z</time>
      </trkpt>
      <trkpt lat="43.47513" lon="-0.65171">
        <ele>203.93689</ele>
        <time>2014-07-08T13:46:30Z</time>
      </trkpt>
      <trkpt lat="43.47484" lon="-0.65148">
        <ele>205.859497</ele>
        <time>2014-07-08T13:46:56Z</time>
      </trkpt>
      <trkpt lat="43.47464" lon="-0.65127">
        <ele>206.340088</ele>
        <time>2014-07-08T13:47:17Z</time>
      </trkpt>
      <trkpt lat="43.47456" lon="-0.65115">
        <ele>207.782104</ele>
        <time>2014-07-08T13:47:27Z</time>
      </trkpt>
      <trkpt lat="43.47448" lon="-0.65087">
        <ele>208.262817</ele>
        <time>2014-07-08T13:47:45Z</time>
      </trkpt>
      <trkpt lat="43.4744" lon="-0.65048">
        <ele>208.743408</ele>
        <time>2014-07-08T13:48:07Z</time>
      </trkpt>
      <trkpt lat="43.47434" lon="-0.65012">
        <ele>208.262817</ele>
        <time>2014-07-08T13:48:27Z</time>
      </trkpt>
      <trkpt lat="43.47426" lon="-0.64966">
        <ele>207.782104</ele>
        <time>2014-07-08T13:48:53Z</time>
      </trkpt>
      <trkpt lat="43.47418" lon="-0.64923">
        <ele>207.301392</ele>
        <time>2014-07-08T13:49:17Z</time>
      </trkpt>
      <trkpt lat="43.47411" lon="-0.64882">
        <ele>207.301392</ele>
        <time>2014-07-08T13:49:40Z</time>
      </trkpt>
      <trkpt lat="43.47412" lon="-0.64879">
        <ele>207.301392</ele>
        <time>2014-07-08T13:49:45Z</time>
      </trkpt>
      <trkpt lat="43.47414" lon="-0.64882">
        <ele>207.301392</ele>
        <time>2014-07-08T13:50:04Z</time>
      </trkpt>
      <trkpt lat="43.47398" lon="-0.64853">
        <ele>207.301392</ele>
        <time>2014-07-08T13:50:25Z</time>
      </trkpt>
      <trkpt lat="43.47384" lon="-0.64821">
        <ele>206.820679</ele>
        <time>2014-07-08T13:50:46Z</time>
      </trkpt>
      <trkpt lat="43.47366" lon="-0.64789">
        <ele>207.301392</ele>
        <time>2014-07-08T13:51:08Z</time>
      </trkpt>
      <trkpt lat="43.47348" lon="-0.64755">
        <ele>207.782104</ele>
        <time>2014-07-08T13:51:31Z</time>
      </trkpt>
      <trkpt lat="43.47334" lon="-0.64724">
        <ele>208.743408</ele>
        <time>2014-07-08T13:51:52Z</time>
      </trkpt>
      <trkpt lat="43.47329" lon="-0.64712">
        <ele>208.743408</ele>
        <time>2014-07-08T13:52:00Z</time>
      </trkpt>
      <trkpt lat="43.47325" lon="-0.64701">
        <ele>209.224121</ele>
        <time>2014-07-08T13:52:07Z</time>
      </trkpt>
      <trkpt lat="43.47313" lon="-0.64665">
        <ele>212.108032</ele>
        <time>2014-07-08T13:52:30Z</time>
      </trkpt>
      <trkpt lat="43.47302" lon="-0.64636">
        <ele>214.03064</ele>
        <time>2014-07-08T13:52:49Z</time>
      </trkpt>
      <trkpt lat="43.47282" lon="-0.64608">
        <ele>215.953247</ele>
        <time>2014-07-08T13:53:11Z</time>
      </trkpt>
      <trkpt lat="43.4726" lon="-0.64581">
        <ele>218.83728</ele>
        <time>2014-07-08T13:53:33Z</time>
      </trkpt>
      <trkpt lat="43.47241" lon="-0.6455">
        <ele>218.83728</ele>
        <time>2014-07-08T13:53:55Z</time>
      </trkpt>
      <trkpt lat="43.47229" lon="-0.64501">
        <ele>218.356567</ele>
        <time>2014-07-08T13:54:22Z</time>
      </trkpt>
      <trkpt lat="43.47229" lon="-0.64448">
        <ele>217.875977</ele>
        <time>2014-07-08T13:54:51Z</time>
      </trkpt>
      <trkpt lat="43.47233" lon="-0.64403">
        <ele>218.356567</ele>
        <time>2014-07-08T13:55:16Z</time>
      </trkpt>
      <trkpt lat="43.47242" lon="-0.64353">
        <ele>218.356567</ele>
        <time>2014-07-08T13:55:44Z</time>
      </trkpt>
      <trkpt lat="43.47249" lon="-0.64306">
        <ele>217.395386</ele>
        <time>2014-07-08T13:56:10Z</time>
      </trkpt>
      <trkpt lat="43.47254" lon="-0.64265">
        <ele>217.875977</ele>
        <time>2014-07-08T13:56:32Z</time>
      </trkpt>
      <trkpt lat="43.47254" lon="-0.64222">
        <ele>217.875977</ele>
        <time>2014-07-08T13:56:55Z</time>
      </trkpt>
      <trkpt lat="43.47252" lon="-0.64199">
        <ele>218.356567</ele>
        <time>2014-07-08T13:57:08Z</time>
      </trkpt>
      <trkpt lat="43.47245" lon="-0.64172">
        <ele>217.875977</ele>
        <time>2014-07-08T13:57:24Z</time>
      </trkpt>
      <trkpt lat="43.47235" lon="-0.6414">
        <ele>218.356567</ele>
        <time>2014-07-08T13:57:43Z</time>
      </trkpt>
      <trkpt lat="43.47233" lon="-0.64136">
        <ele>218.356567</ele>
        <time>2014-07-08T13:57:46Z</time>
      </trkpt>
      <trkpt lat="43.47228" lon="-0.64124">
        <ele>218.356567</ele>
        <time>2014-07-08T13:57:53Z</time>
      </trkpt>
      <trkpt lat="43.47219" lon="-0.64108">
        <ele>218.83728</ele>
        <time>2014-07-08T13:58:04Z</time>
      </trkpt>
      <trkpt lat="43.47212" lon="-0.64098">
        <ele>218.83728</ele>
        <time>2014-07-08T13:58:11Z</time>
      </trkpt>
      <trkpt lat="43.47197" lon="-0.64073">
        <ele>219.317993</ele>
        <time>2014-07-08T13:58:28Z</time>
      </trkpt>
      <trkpt lat="43.47179" lon="-0.64041">
        <ele>220.279175</ele>
        <time>2014-07-08T13:58:50Z</time>
      </trkpt>
      <trkpt lat="43.47163" lon="-0.64015">
        <ele>220.759888</ele>
        <time>2014-07-08T13:59:09Z</time>
      </trkpt>
      <trkpt lat="43.47153" lon="-0.63993">
        <ele>221.721191</ele>
        <time>2014-07-08T13:59:27Z</time>
      </trkpt>
      <trkpt lat="43.47151" lon="-0.63982">
        <ele>221.721191</ele>
        <time>2014-07-08T13:59:41Z</time>
      </trkpt>
      <trkpt lat="43.47159" lon="-0.63982">
        <ele>220.759888</ele>
        <time>2014-07-08T13:59:53Z</time>
      </trkpt>
      <trkpt lat="43.47163" lon="-0.63982">
        <ele>219.798584</ele>
        <time>2014-07-08T14:00:13Z</time>
      </trkpt>
      <trkpt lat="43.47154" lon="-0.63982">
        <ele>220.279175</ele>
        <time>2014-07-08T14:00:35Z</time>
      </trkpt>
      <trkpt lat="43.47155" lon="-0.63979">
        <ele>219.798584</ele>
        <time>2014-07-08T14:01:06Z</time>
      </trkpt>
      <trkpt lat="43.47147" lon="-0.6398">
        <ele>219.798584</ele>
        <time>2014-07-08T14:01:18Z</time>
      </trkpt>
      <trkpt lat="43.47149" lon="-0.63982">
        <ele>220.279175</ele>
        <time>2014-07-08T14:01:34Z</time>
      </trkpt>
      <trkpt lat="43.4716" lon="-0.63984">
        <ele>220.759888</ele>
        <time>2014-07-08T14:01:49Z</time>
      </trkpt>
      <trkpt lat="43.47159" lon="-0.63971">
        <ele>219.317993</ele>
        <time>2014-07-08T14:02:17Z</time>
      </trkpt>
      <trkpt lat="43.47155" lon="-0.63969">
        <ele>219.798584</ele>
        <time>2014-07-08T14:03:00Z</time>
      </trkpt>
      <trkpt lat="43.47156" lon="-0.63961">
        <ele>220.759888</ele>
        <time>2014-07-08T14:03:43Z</time>
      </trkpt>
      <trkpt lat="43.47157" lon="-0.63962">
        <ele>221.240601</ele>
        <time>2014-07-08T14:04:20Z</time>
      </trkpt>
      <trkpt lat="43.47153" lon="-0.63959">
        <ele>221.721191</ele>
        <time>2014-07-08T14:05:00Z</time>
      </trkpt>
      <trkpt lat="43.47151" lon="-0.63966">
        <ele>221.721191</ele>
        <time>2014-07-08T14:05:21Z</time>
      </trkpt>
      <trkpt lat="43.47145" lon="-0.63972">
        <ele>221.721191</ele>
        <time>2014-07-08T14:05:34Z</time>
      </trkpt>
      <trkpt lat="43.47135" lon="-0.63968">
        <ele>220.279175</ele>
        <time>2014-07-08T14:05:47Z</time>
      </trkpt>
      <trkpt lat="43.4712" lon="-0.63943">
        <ele>221.240601</ele>
        <time>2014-07-08T14:06:08Z</time>
      </trkpt>
      <trkpt lat="43.47109" lon="-0.63911">
        <ele>220.279175</ele>
        <time>2014-07-08T14:06:29Z</time>
      </trkpt>
      <trkpt lat="43.47103" lon="-0.63892">
        <ele>220.759888</ele>
        <time>2014-07-08T14:06:44Z</time>
      </trkpt>
      <trkpt lat="43.47103" lon="-0.63895">
        <ele>220.759888</ele>
        <time>2014-07-08T14:06:51Z</time>
      </trkpt>
      <trkpt lat="43.47096" lon="-0.63861">
        <ele>222.201782</ele>
        <time>2014-07-08T14:07:11Z</time>
      </trkpt>
      <trkpt lat="43.47086" lon="-0.63824">
        <ele>221.721191</ele>
        <time>2014-07-08T14:07:33Z</time>
      </trkpt>
      <trkpt lat="43.47077" lon="-0.63794">
        <ele>221.240601</ele>
        <time>2014-07-08T14:07:52Z</time>
      </trkpt>
      <trkpt lat="43.47069" lon="-0.63758">
        <ele>223.163208</ele>
        <time>2014-07-08T14:08:13Z</time>
      </trkpt>
      <trkpt lat="43.4706" lon="-0.63718">
        <ele>223.643799</ele>
        <time>2014-07-08T14:08:35Z</time>
      </trkpt>
      <trkpt lat="43.47058" lon="-0.63709">
        <ele>224.605225</ele>
        <time>2014-07-08T14:08:52Z</time>
      </trkpt>
      <trkpt lat="43.4705" lon="-0.63682">
        <ele>224.605225</ele>
        <time>2014-07-08T14:09:09Z</time>
      </trkpt>
      <trkpt lat="43.47036" lon="-0.6365">
        <ele>224.124512</ele>
        <time>2014-07-08T14:09:29Z</time>
      </trkpt>
      <trkpt lat="43.47019" lon="-0.63613">
        <ele>225.085938</ele>
        <time>2014-07-08T14:09:53Z</time>
      </trkpt>
      <trkpt lat="43.47003" lon="-0.63582">
        <ele>225.085938</ele>
        <time>2014-07-08T14:10:14Z</time>
      </trkpt>
      <trkpt lat="43.46984" lon="-0.63546">
        <ele>224.605225</ele>
        <time>2014-07-08T14:10:38Z</time>
      </trkpt>
      <trkpt lat="43.46966" lon="-0.63514">
        <ele>224.124512</ele>
        <time>2014-07-08T14:10:59Z</time>
      </trkpt>
      <trkpt lat="43.46953" lon="-0.63496">
        <ele>224.605225</ele>
        <time>2014-07-08T14:11:14Z</time>
      </trkpt>
      <trkpt lat="43.46931" lon="-0.63464">
        <ele>224.605225</ele>
        <time>2014-07-08T14:11:38Z</time>
      </trkpt>
      <trkpt lat="43.46909" lon="-0.63435">
        <ele>225.085938</ele>
        <time>2014-07-08T14:12:00Z</time>
      </trkpt>
      <trkpt lat="43.4689" lon="-0.63414">
        <ele>226.047119</ele>
        <time>2014-07-08T14:12:19Z</time>
      </trkpt>
      <trkpt lat="43.46868" lon="-0.63385">
        <ele>226.047119</ele>
        <time>2014-07-08T14:12:42Z</time>
      </trkpt>
      <trkpt lat="43.46845" lon="-0.63357">
        <ele>226.527832</ele>
        <time>2014-07-08T14:13:05Z</time>
      </trkpt>
      <trkpt lat="43.46825" lon="-0.63333">
        <ele>227.008545</ele>
        <time>2014-07-08T14:13:26Z</time>
      </trkpt>
      <trkpt lat="43.46806" lon="-0.63309">
        <ele>228.450439</ele>
        <time>2014-07-08T14:13:45Z</time>
      </trkpt>
      <trkpt lat="43.46788" lon="-0.63284">
        <ele>228.450439</ele>
        <time>2014-07-08T14:14:05Z</time>
      </trkpt>
      <trkpt lat="43.46765" lon="-0.63259">
        <ele>228.450439</ele>
        <time>2014-07-08T14:14:27Z</time>
      </trkpt>
      <trkpt lat="43.46738" lon="-0.6323">
        <ele>228.931152</ele>
        <time>2014-07-08T14:14:52Z</time>
      </trkpt>
      <trkpt lat="43.46714" lon="-0.63211">
        <ele>228.450439</ele>
        <time>2014-07-08T14:15:13Z</time>
      </trkpt>
      <trkpt lat="43.4669" lon="-0.63195">
        <ele>229.411743</ele>
        <time>2014-07-08T14:15:35Z</time>
      </trkpt>
      <trkpt lat="43.46668" lon="-0.63172">
        <ele>229.411743</ele>
        <time>2014-07-08T14:15:57Z</time>
      </trkpt>
      <trkpt lat="43.46649" lon="-0.63153">
        <ele>229.411743</ele>
        <time>2014-07-08T14:16:16Z</time>
      </trkpt>
      <trkpt lat="43.46628" lon="-0.63126">
        <ele>228.450439</ele>
        <time>2014-07-08T14:16:39Z</time>
      </trkpt>
      <trkpt lat="43.46608" lon="-0.63098">
        <ele>228.450439</ele>
        <time>2014-07-08T14:17:02Z</time>
      </trkpt>
      <trkpt lat="43.46587" lon="-0.63064">
        <ele>227.008545</ele>
        <time>2014-07-08T14:17:27Z</time>
      </trkpt>
      <trkpt lat="43.46565" lon="-0.63028">
        <ele>226.047119</ele>
        <time>2014-07-08T14:17:53Z</time>
      </trkpt>
      <trkpt lat="43.46546" lon="-0.62993">
        <ele>226.047119</ele>
        <time>2014-07-08T14:18:16Z</time>
      </trkpt>
      <trkpt lat="43.46529" lon="-0.62951">
        <ele>224.605225</ele>
        <time>2014-07-08T14:18:42Z</time>
      </trkpt>
      <trkpt lat="43.46523" lon="-0.62914">
        <ele>224.605225</ele>
        <time>2014-07-08T14:19:03Z</time>
      </trkpt>
      <trkpt lat="43.46514" lon="-0.62871">
        <ele>225.085938</ele>
        <time>2014-07-08T14:19:24Z</time>
      </trkpt>
      <trkpt lat="43.46509" lon="-0.62844">
        <ele>224.605225</ele>
        <time>2014-07-08T14:19:40Z</time>
      </trkpt>
      <trkpt lat="43.46503" lon="-0.62807">
        <ele>224.124512</ele>
        <time>2014-07-08T14:20:00Z</time>
      </trkpt>
      <trkpt lat="43.46503" lon="-0.62771">
        <ele>225.566528</ele>
        <time>2014-07-08T14:20:20Z</time>
      </trkpt>
      <trkpt lat="43.46508" lon="-0.62734">
        <ele>226.527832</ele>
        <time>2014-07-08T14:20:40Z</time>
      </trkpt>
      <trkpt lat="43.46513" lon="-0.62696">
        <ele>225.566528</ele>
        <time>2014-07-08T14:21:01Z</time>
      </trkpt>
      <trkpt lat="43.46519" lon="-0.62651">
        <ele>224.124512</ele>
        <time>2014-07-08T14:21:25Z</time>
      </trkpt>
      <trkpt lat="43.46524" lon="-0.62609">
        <ele>224.605225</ele>
        <time>2014-07-08T14:21:48Z</time>
      </trkpt>
      <trkpt lat="43.46529" lon="-0.62573">
        <ele>224.124512</ele>
        <time>2014-07-08T14:22:08Z</time>
      </trkpt>
      <trkpt lat="43.4653" lon="-0.62526">
        <ele>222.682495</ele>
        <time>2014-07-08T14:22:33Z</time>
      </trkpt>
      <trkpt lat="43.4652" lon="-0.62487">
        <ele>220.759888</ele>
        <time>2014-07-08T14:22:55Z</time>
      </trkpt>
      <trkpt lat="43.46511" lon="-0.62451">
        <ele>220.279175</ele>
        <time>2014-07-08T14:23:16Z</time>
      </trkpt>
      <trkpt lat="43.46504" lon="-0.62418">
        <ele>218.83728</ele>
        <time>2014-07-08T14:23:35Z</time>
      </trkpt>
      <trkpt lat="43.46498" lon="-0.62381">
        <ele>217.875977</ele>
        <time>2014-07-08T14:23:56Z</time>
      </trkpt>
      <trkpt lat="43.46498" lon="-0.62345">
        <ele>217.395386</ele>
        <time>2014-07-08T14:24:16Z</time>
      </trkpt>
      <trkpt lat="43.4649" lon="-0.62315">
        <ele>216.43396</ele>
        <time>2014-07-08T14:24:33Z</time>
      </trkpt>
      <trkpt lat="43.46482" lon="-0.6228">
        <ele>215.472656</ele>
        <time>2014-07-08T14:24:53Z</time>
      </trkpt>
      <trkpt lat="43.46475" lon="-0.62248">
        <ele>214.03064</ele>
        <time>2014-07-08T14:25:10Z</time>
      </trkpt>
      <trkpt lat="43.46474" lon="-0.62236">
        <ele>213.069336</ele>
        <time>2014-07-08T14:25:16Z</time>
      </trkpt>
      <trkpt lat="43.46469" lon="-0.62207">
        <ele>212.588623</ele>
        <time>2014-07-08T14:25:31Z</time>
      </trkpt>
      <trkpt lat="43.46474" lon="-0.62172">
        <ele>211.146729</ele>
        <time>2014-07-08T14:25:54Z</time>
      </trkpt>
      <trkpt lat="43.46478" lon="-0.6214">
        <ele>209.224121</ele>
        <time>2014-07-08T14:26:12Z</time>
      </trkpt>
      <trkpt lat="43.46478" lon="-0.62098">
        <ele>207.782104</ele>
        <time>2014-07-08T14:26:37Z</time>
      </trkpt>
      <trkpt lat="43.46478" lon="-0.62064">
        <ele>205.859497</ele>
        <time>2014-07-08T14:26:55Z</time>
      </trkpt>
      <trkpt lat="43.46481" lon="-0.62031">
        <ele>205.859497</ele>
        <time>2014-07-08T14:27:15Z</time>
      </trkpt>
      <trkpt lat="43.46483" lon="-0.61992">
        <ele>205.859497</ele>
        <time>2014-07-08T14:27:37Z</time>
      </trkpt>
      <trkpt lat="43.46486" lon="-0.61956">
        <ele>205.378784</ele>
        <time>2014-07-08T14:27:57Z</time>
      </trkpt>
      <trkpt lat="43.46488" lon="-0.61918">
        <ele>205.859497</ele>
        <time>2014-07-08T14:28:18Z</time>
      </trkpt>
      <trkpt lat="43.46486" lon="-0.61909">
        <ele>205.859497</ele>
        <time>2014-07-08T14:28:23Z</time>
      </trkpt>
      <trkpt lat="43.46486" lon="-0.61893">
        <ele>206.340088</ele>
        <time>2014-07-08T14:28:32Z</time>
      </trkpt>
      <trkpt lat="43.46484" lon="-0.61856">
        <ele>207.301392</ele>
        <time>2014-07-08T14:28:49Z</time>
      </trkpt>
      <trkpt lat="43.4648" lon="-0.61826">
        <ele>208.743408</ele>
        <time>2014-07-08T14:29:07Z</time>
      </trkpt>
      <trkpt lat="43.46479" lon="-0.61801">
        <ele>207.782104</ele>
        <time>2014-07-08T14:29:22Z</time>
      </trkpt>
      <trkpt lat="43.46477" lon="-0.61777">
        <ele>207.301392</ele>
        <time>2014-07-08T14:29:37Z</time>
      </trkpt>
      <trkpt lat="43.46474" lon="-0.61752">
        <ele>207.301392</ele>
        <time>2014-07-08T14:29:50Z</time>
      </trkpt>
      <trkpt lat="43.46471" lon="-0.61722">
        <ele>206.820679</ele>
        <time>2014-07-08T14:30:07Z</time>
      </trkpt>
      <trkpt lat="43.4647" lon="-0.61697">
        <ele>206.340088</ele>
        <time>2014-07-08T14:30:21Z</time>
      </trkpt>
      <trkpt lat="43.46461" lon="-0.61663">
        <ele>206.820679</ele>
        <time>2014-07-08T14:30:43Z</time>
      </trkpt>
      <trkpt lat="43.46458" lon="-0.61657">
        <ele>207.301392</ele>
        <time>2014-07-08T14:30:56Z</time>
      </trkpt>
    </trkseg>
  </trk>
</gpx>